Station info - map view · info · telemetry · weather · raw · status · beacons · messages · bulletins · browse · moving · my account
Callsign, ship name or locator: Clear       
It is possible to search using wildcards (*?) after a prefix. Example: OH*
APRS station OE8NDR-9 - show graphs
Map loading...
Comment: 14.6V 18C
Last status: best greetings from Fritz vy 73
Location: 46°38.08' N 14°21.85' E - locator JN76EP32QH - show map - static map
1.8 miles North bearing 0° from Ebenthal, Carinthia, Austria [?]
2.9 miles East bearing 76° from Klagenfurt am Wörthersee (Klagenfurt am Woerthersee), Klagenfurt am Wörthersee, Carinthia, Austria
40.9 miles North bearing 351° from Ljubljana, Ljubljana, Slovenia
59.3 miles Southwest bearing 240° from Graz, Styria, Austria
Last position: 2019-01-15 13:10:31 EST (1d 2h57m ago)
2019-01-15 19:10:31 CET local time at Ebenthal, Austria [?]
Altitude: 1453 ft
Course: 88°
Speed: 45 MPH
Device: Argent Data Systems: OpenTracker (tracker)
Last path: OE8NDR-9>APOTC1 via WIDE1-1,WIDE2-2,qAR,OE8KKK-11 (good)
Positions stored: 114094
Packet rate: 37 seconds between packets on average during 1802 seconds.
Other SSIDs: OE8NDR OE8NDR-8
Stations near current position of OE8NDR-9 - show more
callsign distance last heard - EST      callsign distance last heard - EST
LOWK2.2 miles 299°2019-01-16 16:06:06 OE8LCK-32.6 miles 252°2019-01-08 14:08:46
N15133634.6 miles 47°2018-12-24 22:47:23 OE8XWZ B5.4 miles 293°2019-01-16 16:03:02
OE8XWZ-B5.4 miles 293°2019-01-16 16:03:12 OE8LCK-135.4 miles 289°2019-01-16 16:07:01
OE8LCK-75.5 miles 292°2019-01-01 13:09:17 OE8LCK-95.5 miles 291°2019-01-16 01:53:44
OE8LCK-105.8 miles 292°2019-01-16 16:06:05 N1513363_6.1 miles 111°2018-12-24 22:30:58
OE8DBK-96.9 miles 301°2019-01-16 11:24:07 OE8XMK-DP7.3 miles 25°2019-01-16 16:00:30
OE8AGK-i7.5 miles 99°2018-12-28 08:28:40 OE8KKK-117.6 miles 197°2019-01-16 16:07:26
OE8YKK-57.6 miles 197°2019-01-16 16:04:51 OE8HXK8.0 miles 206°2019-01-05 03:53:09
OE8KKK-78.1 miles 193°2019-01-01 05:18:05 JOLA2-18.3 miles 280°2019-01-16 15:43:24
OE8MDK-78.6 miles 89°2019-01-06 09:30:18 OE8MDK-158.6 miles 89°2019-01-16 15:47:10
Stations which heard OE8NDR-9 directly on radio –
callsign pkts first heard - EST last heard longest (tx => rx) longest at - EST
IR3BT 18 2019-01-01 06:01:59 2019-01-01 08:32:05 JN55GK > JN56MD 53.7 miles 27° 2019-01-01 06:01:59
IR2AO 11 2019-01-01 05:06:56 2019-01-01 05:17:52 JN45RO > JN45PM 8.7 miles 240° 2019-01-01 05:17:52
IR2UBX-11 5 2019-01-01 04:48:38 2019-01-01 05:12:07 JN45QN > JN45MQ 16.9 miles 303° 2019-01-01 05:12:07
IK3XTM 37 2019-01-01 05:58:09 2019-01-01 10:36:03 JN55FL > JN55LP 28.0 miles 66° 2019-01-01 05:58:09
OE6XLR-11 32 2019-01-02 19:50:03 2019-01-15 02:06:35 JN76CP > JN77OI 67.7 miles 41° 2019-01-11 08:20:02
IQ3VQ 10 2019-01-01 10:14:31 2019-01-01 10:28:39 JN55KK > JN55MK 11.7 miles 91° 2019-01-01 10:14:31
IZ3LBC 19 2019-01-01 06:02:21 2019-01-01 10:15:53 JN55GK > JN55KL 16.7 miles 82° 2019-01-01 06:02:21
IR2BZ 34 2019-01-01 05:17:32 2019-01-01 06:08:10 JN55HK > JN45XO 32.7 miles 289° 2019-01-01 06:08:10
S59GCD-12 2 2019-01-10 09:44:33 2019-01-10 11:27:45 JN76HR > JN76OE 47.8 miles 144° 2019-01-10 11:27:45
IZ3LSV-1 12 2019-01-01 11:22:53 2019-01-01 11:32:42 JN65IR > JN65HP 8.3 miles 207° 2019-01-01 11:32:42
9A7KXP-1 197 2019-01-01 14:41:47 2019-01-15 05:19:36 JN66TO > JN75XV 121.2 miles 112° 2019-01-13 08:07:49
IZ3GME-1 7 2019-01-01 10:52:50 2019-01-01 10:58:49 JN55VL > JN55WJ 7.2 miles 121° 2019-01-01 10:52:50
IR2T 1 2019-01-01 05:40:38 2019-01-01 05:40:38 JN55AN > JN56EB 38.9 miles 25° 2019-01-01 05:40:38
IR2Y 9 2019-01-01 05:52:11 2019-01-01 06:10:33 JN55HK > JN55EK 10.7 miles 261° 2019-01-01 06:10:33
S59DGO-5 19 2019-01-01 11:36:55 2019-01-01 12:15:53 JN65JS > JN75FO 81.7 miles 99° 2019-01-01 11:39:29
IK3ITI 8 2019-01-01 11:36:53 2019-01-01 11:52:18 JN65NT > JN65KS 10.6 miles 245° 2019-01-01 11:52:18
S55AOP-5 2 2019-01-01 12:06:05 2019-01-01 12:09:36 JN66OA > JN65TW 21.4 miles 111° 2019-01-01 12:09:36
S57AJJ-10 3 2019-01-01 13:19:52 2019-01-13 07:52:41 JN66XO > JN76CI 22.7 miles 148° 2019-01-13 07:52:41
IR2S 45 2019-01-01 05:05:46 2019-01-01 08:48:06 JN45PM > JN55DQ 49.5 miles 77° 2019-01-01 05:05:46
IR2BW 16 2019-01-01 05:29:47 2019-01-01 05:54:59 JN45VP > JN55DN 25.3 miles 102° 2019-01-01 05:29:47
OE8KKK-11 321 2019-01-01 12:59:55 2019-01-15 13:10:31 JN66SO > JN76DM 36.9 miles 98° 2019-01-13 08:11:37
S55YZA-11 228 2019-01-01 14:41:40 2019-01-15 05:19:37 JN66TO > JN76NE 76.4 miles 111° 2019-01-13 08:07:46
IR2DF 1 2019-01-01 05:40:38 2019-01-01 05:40:38 JN55AN > JN55AS 12.7 miles 359° 2019-01-01 05:40:38
OE6XBF-11 150 2019-01-01 14:44:39 2019-01-15 05:19:40 JN66TO > JN76XU 111.1 miles 80° 2019-01-13 08:07:45
IK2ILW 2 2019-01-01 05:16:28 2019-01-01 05:30:29 JN45RO > JN45VV 27.0 miles 38° 2019-01-01 05:16:28
IQ3TS 3 2019-01-01 11:52:39 2019-01-01 12:01:04 JN65NT > JN65VP 37.6 miles 110° 2019-01-01 11:52:39
IQ3UD 7 2019-01-01 12:04:41 2019-01-01 12:28:25 JN66NI > JN66OB 21.9 miles 161° 2019-01-01 12:28:25
S59EKL-10 17 2019-01-10 07:07:25 2019-01-10 11:26:08 JN76HR > JN76NI 35.2 miles 139° 2019-01-10 11:26:08
IZ3VIV-9 11 2019-01-01 10:11:13 2019-01-01 10:33:56 JN55JK > JN55NJ 17.0 miles 97° 2019-01-01 10:11:13
IR3CA-2 33 2019-01-01 10:55:21 2019-01-01 11:33:23 JN55VK > JN66EA 46.6 miles 34° 2019-01-01 10:55:21
IR2UFW 1 2019-01-01 04:49:56 2019-01-01 04:49:56 JN45OL > JN45LI 12.1 miles 233° 2019-01-01 04:49:56
IZ3VIV-15 15 2019-01-01 10:11:11 2019-01-01 10:47:14 JN55JK > JN55PJ 23.7 miles 97° 2019-01-01 10:11:11
IW3FVZ-11 4 2019-01-01 10:56:20 2019-01-01 11:01:59 JN65AK > JN55WH 11.5 miles 218° 2019-01-01 11:01:59
IQ4SC 2 2019-01-01 05:59:32 2019-01-01 06:01:17 JN55FK > JN54IO 60.4 miles 169° 2019-01-01 05:59:32
IR2BY 1 2019-01-01 05:37:08 2019-01-01 05:37:08 JN45XO > JN55BQ 9.7 miles 46° 2019-01-01 05:37:08
S56FEJ-10 2 2019-01-09 13:58:01 2019-01-10 11:50:33 JN76IP > JN75CW 56.2 miles 205° 2019-01-09 13:58:01
IR2UCL 18 2019-01-01 05:18:34 2019-01-01 05:38:53 JN45XO > JN45UP 15.1 miles 288° 2019-01-01 05:38:53
IV3GCH 2 2019-01-01 11:48:12 2019-01-01 12:22:33 JN66NG > JN65KX 23.5 miles 206° 2019-01-01 12:22:33
IU2GOH 13 2019-01-01 05:37:50 2019-01-01 05:52:10 JN45XO > JN55BL 12.0 miles 136° 2019-01-01 05:37:50
IR3EO 69 2019-01-01 11:18:18 2019-01-01 12:20:47 JN65DN > JN66OF 63.7 miles 44° 2019-01-01 11:18:18
S59DTB-10 7 2019-01-10 09:43:55 2019-01-10 11:24:25 JN76HR > JN86AO 66.5 miles 97° 2019-01-10 11:24:25
OE8HXK 29 2019-01-01 13:18:49 2019-01-02 15:12:09 JN76HP > JN76DM 16.7 miles 240° 2019-01-01 14:35:03
OE8LCK-10 1654 2019-01-01 13:25:07 2019-01-15 13:10:34 JN66TO > JN76DQ 30.6 miles 80° 2019-01-13 08:07:45
IQ3VO 45 2019-01-01 05:53:14 2019-01-01 10:41:38 JN55DL > JN55MQ 39.1 miles 69° 2019-01-01 05:53:14
IR3AO 8 2019-01-01 11:16:33 2019-01-01 11:27:46 JN65EO > JN56WK 62.8 miles 337° 2019-01-01 11:21:07
OE8NDR 1199 2019-01-01 13:28:31 2019-01-15 13:09:58 JN66XO > JN76IP 34.8 miles 84° 2019-01-07 15:26:30
S56JCH-10 2 2019-01-01 11:36:32 2019-01-01 11:39:20 JN65JS > JN75DS 73.6 miles 90° 2019-01-01 11:36:32
IK3YBX-10 9 2019-01-01 11:07:14 2019-01-01 11:20:03 JN65BL > JN65DM 8.0 miles 73° 2019-01-01 11:07:14
9A1AYZ-11 250 2019-01-01 14:41:37 2019-01-15 05:19:37 JN66TO > JN75TR 111.8 miles 121° 2019-01-13 08:07:56
IR3UDH 2 2019-01-01 11:21:28 2019-01-01 11:22:10 JN65EO > JN56TC 49.6 miles 313° 2019-01-01 11:22:10
IQ3UH 6 2019-01-01 12:24:38 2019-01-01 12:31:36 JN66OJ > JN66MJ 7.6 miles 273° 2019-01-01 12:31:36
OE6XG-2 2 2019-01-10 10:38:21 2019-01-10 10:40:30 JN76HR > JN77OF 43.8 miles 39° 2019-01-10 10:38:21
S50VZZ-10 134 2019-01-01 14:19:30 2019-01-15 13:10:25 JN76BR > JN76OM 53.2 miles 105° 2019-01-11 09:31:24
IR3EH 7 2019-01-01 10:40:56 2019-01-01 11:39:41 JN55RL > JN66DB 58.4 miles 45° 2019-01-01 10:40:56
IR3EP-11 17 2019-01-01 10:32:31 2019-01-01 10:55:39 JN55OJ > JN55SK 14.9 miles 83° 2019-01-01 10:32:31
IR2DQ 1 2019-01-01 05:38:53 2019-01-01 05:38:53 JN45XO > JN55AD 29.0 miles 177° 2019-01-01 05:38:53
IK3OCD-10 12 2019-01-01 11:00:34 2019-01-01 11:11:28 JN55XK > JN65AL 6.4 miles 59° 2019-01-01 11:00:34
OE8YKK-5 51 2019-01-07 12:05:46 2019-01-12 09:26:42 JN76DO > JN76GV 21.5 miles 30° 2019-01-11 11:01:24
IR2AL 28 2019-01-01 04:46:02 2019-01-01 05:13:19 JN45QN > JN45OL 10.2 miles 234° 2019-01-01 05:13:19
IW2GOB-12 1 2019-01-01 05:13:03 2019-01-01 05:13:03 JN45QN > JN45SH 20.2 miles 158° 2019-01-01 05:13:03
IZ2DDY 1 2019-01-01 05:11:43 2019-01-01 05:11:43 JN45QN > JN45SH 19.4 miles 155° 2019-01-01 05:11:43
IR2BP 68 2019-01-01 05:21:44 2019-01-01 10:10:05 JN45SO > JN55DN 34.5 miles 98° 2019-01-01 05:21:44

Only position packets which were originated by the station are shown here. The range statistics show some extra long hops, because some digipeaters do not correctly add themselves to the digipeater path. Please check the raw packets.
About this site
This page shows real-time information collected from the Automatic Position Reporting System Internet network (APRS-IS). APRS is used by amateur (ham) radio operators to transmit real-time position information, weather data, telemetry and messages over the radio. A vehicle equipped with a GPS receiver, a VHF transmitter or HF transceiver and a small computer device called a tracker transmits it's location, speed and course in a small data packet, which is then received by a nearby iGate receiving site which forwards the packet on the Internet. Systems connected to the Internet can send information on the APRS-IS without a radio transmitter, or collect and display information transmitted anywhere in the world.
FAQ · Blog · Discussion group · Linking to aprs.fi · AIS sites · Service status · Database statistics · Advertising on aprs.fi · Technical details · API · Change log · Planned changes · Credits and thanks · Terms Of Service · iPhone/iPad APRS